< < Back
Terminal Aerodrome Forecast


Current Version              Previous Versions:   1  2  3  4  5  6  7  8  9  

Terminal Aerodrome Forecast

980
FTUS44 KMRX 242103 AAA
TAFTYS
TAF AMD
KTYS 242103Z 2421/2518 24012G22KT P6SM SCT060
     FM250000 24010KT P6SM SKC
     FM250500 26005KT P6SM BKN150
     FM251500 26008KT P6SM SCT150=



Latest METAR

962
SAUS80 KWBC 242100 RRF
MTRTYS
METAR KTYS 252053Z VRB04KT 10SM SCT180 BKN250 13/M03 A3003 RMK AO2
SLP169 T01281028 58017


USA.gov is the U.S. government's official web portal to all federal, state and local government web resources and services.